Time;durP1;ratioP1;P1;durP2;ratioP2;P2;SDS_P1;SDS_P2;PMS_P1;PMS_P2;Temp;Humidity;BMP_temperature;BMP_pressure;BME280_temperature;BME280_humidity;BME280_pressure;Samples;Min_cycle;Max_cycle;Signal;HPM_P1;HPM_P2
2023/08/19 00:00:33;;;;;;;3.73;3.17;;;24.00;99.90;;;;;;5035987;28;20671;-71
2023/08/19 00:02:59;;;;;;;3.30;2.60;;;23.90;99.90;;;;;;5035382;28;20183;-70
2023/08/19 00:05:25;;;;;;;5.57;3.07;;;23.80;99.90;;;;;;5036164;28;20171;-71
2023/08/19 00:07:50;;;;;;;4.13;3.03;;;23.60;99.90;;;;;;5036041;28;20218;-71
2023/08/19 00:10:16;;;;;;;4.70;3.23;;;23.60;99.90;;;;;;5035795;28;20172;-71
2023/08/19 00:12:42;;;;;;;3.23;2.37;;;23.60;99.90;;;;;;5035891;28;20216;-70
2023/08/19 00:15:07;;;;;;;3.63;2.90;;;23.60;99.90;;;;;;5035673;28;20171;-71
2023/08/19 00:17:33;;;;;;;9.53;3.17;;;23.50;99.90;;;;;;5035433;28;20202;-70
2023/08/19 00:20:00;;;;;;;3.97;3.00;;;23.60;99.90;;;;;;5035315;28;20174;-70
2023/08/19 00:22:26;;;;;;;4.90;2.57;;;23.60;99.90;;;;;;5035643;28;20171;-71
2023/08/19 00:24:51;;;;;;;3.60;3.20;;;23.70;99.90;;;;;;5035880;28;20402;-70
2023/08/19 00:27:17;;;;;;;5.40;2.77;;;23.70;99.90;;;;;;5035490;28;20221;-70
2023/08/19 00:29:42;;;;;;;5.03;3.00;;;23.70;99.90;;;;;;5035456;28;20246;-70
2023/08/19 00:32:08;;;;;;;4.10;3.47;;;23.60;99.90;;;;;;5035415;28;20201;-71
2023/08/19 00:34:33;;;;;;;4.70;2.97;;;23.50;99.90;;;;;;5035114;28;20278;-71
2023/08/19 00:36:59;;;;;;;7.60;3.70;;;23.60;99.90;;;;;;5035217;28;20281;-70
2023/08/19 00:39:24;;;;;;;6.20;2.80;;;23.60;99.90;;;;;;5034459;28;20171;-71
2023/08/19 00:41:53;;;;;;;3.80;3.00;;;23.60;99.90;;;;;;5035091;28;20171;-71
2023/08/19 00:44:18;;;;;;;4.77;3.40;;;23.60;99.90;;;;;;5035312;28;20255;-71
2023/08/19 00:46:44;;;;;;;5.50;3.53;;;23.60;99.90;;;;;;5035298;28;20402;-71
2023/08/19 00:49:10;;;;;;;3.70;3.10;;;23.60;99.90;;;;;;5034686;28;20175;-71
2023/08/19 00:51:36;;;;;;;3.47;2.70;;;23.70;99.90;;;;;;5035367;28;20294;-71
2023/08/19 00:54:01;;;;;;;4.07;2.97;;;23.70;99.90;;;;;;5035037;28;20195;-71
2023/08/19 00:56:27;;;;;;;4.10;3.33;;;23.60;99.90;;;;;;5035047;28;20172;-71
2023/08/19 00:58:55;;;;;;;4.60;3.00;;;23.60;99.90;;;;;;5034800;28;20195;-71
2023/08/19 01:01:20;;;;;;;3.00;2.70;;;23.60;99.90;;;;;;5035038;28;20241;-71
2023/08/19 01:03:46;;;;;;;5.07;3.00;;;23.50;99.90;;;;;;5034410;28;20426;-72
2023/08/19 01:06:24;;;;;;;3.43;3.10;;;23.50;99.90;;;;;;5035367;28;20195;-71
2023/08/19 01:09:19;;;;;;;3.40;2.90;;;23.40;99.90;;;;;;5034893;28;20187;-71
2023/08/19 01:12:11;;;;;;;4.10;3.43;;;23.40;99.90;;;;;;5035030;28;20406;-71
2023/08/19 01:14:52;;;;;;;5.13;3.40;;;23.30;99.90;;;;;;5034139;28;20390;-71
2023/08/19 01:17:24;;;;;;;3.20;2.90;;;23.00;99.90;;;;;;5035161;28;20398;-71
2023/08/19 01:19:52;;;;;;;3.90;3.60;;;22.90;99.90;;;;;;5034323;28;20758;-71
2023/08/19 01:22:45;;;;;;;5.03;3.73;;;22.80;99.90;;;;;;5034719;28;20770;-71
2023/08/19 01:25:11;;;;;;;3.50;3.20;;;22.80;99.90;;;;;;5035031;28;20374;-71
2023/08/19 01:27:37;;;;;;;3.60;3.30;;;22.80;99.90;;;;;;5034499;28;20413;-70
2023/08/19 01:30:04;;;;;;;3.97;3.57;;;22.90;99.90;;;;;;5034484;28;20501;-70
2023/08/19 01:32:30;;;;;;;6.50;3.50;;;22.90;99.90;;;;;;5034420;28;20175;-69
2023/08/19 01:34:56;;;;;;;5.37;3.60;;;22.90;99.90;;;;;;5033825;28;20756;-70
2023/08/19 01:37:46;;;;;;;4.63;3.43;;;22.90;99.90;;;;;;5034051;28;20449;-70
2023/08/19 01:40:13;;;;;;;3.50;3.00;;;22.90;99.90;;;;;;4986003;28;20438;-71
2023/08/19 01:42:40;;;;;;;3.63;3.30;;;22.90;99.90;;;;;;5014400;28;20423;-70
2023/08/19 01:45:07;;;;;;;5.50;3.40;;;22.90;99.90;;;;;;5019500;28;20442;-70
2023/08/19 01:47:34;;;;;;;3.60;3.30;;;22.90;99.90;;;;;;5034207;28;20406;-70
2023/08/19 01:49:59;;;;;;;4.57;4.10;;;23.00;99.90;;;;;;5033420;28;20414;-70
2023/08/19 01:52:25;;;;;;;4.87;4.20;;;22.90;99.90;;;;;;5033946;28;20495;-71
2023/08/19 01:54:50;;;;;;;4.13;3.73;;;22.90;99.90;;;;;;5033862;28;20281;-72
2023/08/19 01:57:16;;;;;;;4.47;3.70;;;23.00;99.90;;;;;;5033953;28;20258;-70
2023/08/19 01:59:42;;;;;;;5.33;3.27;;;22.90;99.90;;;;;;5033810;28;20171;-71
2023/08/19 02:02:07;;;;;;;4.07;3.67;;;22.90;99.90;;;;;;5033554;28;20171;-71
2023/08/19 02:04:33;;;;;;;5.43;3.30;;;23.00;99.90;;;;;;5032958;28;20195;-71
2023/08/19 02:06:58;;;;;;;5.80;3.77;;;22.90;99.90;;;;;;5033911;28;20220;-71
2023/08/19 02:09:24;;;;;;;4.53;3.80;;;22.90;99.90;;;;;;5033736;28;20183;-70
2023/08/19 02:11:49;;;;;;;4.57;3.80;;;23.00;99.90;;;;;;5033419;28;20207;-70
2023/08/19 02:14:15;;;;;;;4.37;3.30;;;23.00;99.90;;;;;;5031415;28;20285;-70
2023/08/19 02:16:41;;;;;;;5.87;3.77;;;23.00;99.90;;;;;;5033616;28;20183;-70
2023/08/19 02:19:06;;;;;;;6.77;3.60;;;23.00;99.90;;;;;;5032803;28;20219;-70
2023/08/19 02:21:32;;;;;;;4.27;3.87;;;22.90;99.90;;;;;;5033260;28;20167;-71
2023/08/19 02:23:57;;;;;;;4.00;3.63;;;22.80;99.90;;;;;;5046244;22;20222;-69
2023/08/19 02:26:23;;;;;;;7.67;3.80;;;22.70;99.90;;;;;;5013602;28;20261;-71
2023/08/19 02:28:48;;;;;;;4.43;3.63;;;22.70;99.90;;;;;;5021293;28;20225;-70
2023/08/19 02:31:14;;;;;;;4.20;3.50;;;22.50;99.90;;;;;;5033149;28;20175;-71
2023/08/19 02:33:41;;;;;;;5.67;3.20;;;22.50;99.90;;;;;;5032963;28;20191;-71
2023/08/19 02:36:07;;;;;;;5.20;3.73;;;22.50;99.90;;;;;;5023582;28;20172;-72
2023/08/19 02:38:33;;;;;;;4.90;3.83;;;22.40;99.90;;;;;;5018561;28;20433;-70
2023/08/19 02:40:58;;;;;;;4.20;3.53;;;22.50;99.90;;;;;;5032808;28;20394;-70
2023/08/19 02:43:24;;;;;;;6.17;4.20;;;22.50;99.90;;;;;;5033015;28;20183;-71
2023/08/19 02:45:49;;;;;;;5.37;3.87;;;22.40;99.90;;;;;;5020558;28;20653;-71
2023/08/19 02:48:15;;;;;;;5.83;3.87;;;22.50;99.90;;;;;;5016016;28;20484;-71
2023/08/19 02:50:42;;;;;;;4.37;3.97;;;22.40;99.90;;;;;;5032365;28;20265;-70
2023/08/19 02:53:07;;;;;;;5.17;4.23;;;22.30;99.90;;;;;;5032567;28;20432;-71
2023/08/19 02:55:33;;;;;;;4.80;4.03;;;22.30;99.90;;;;;;5032826;28;20406;-70
2023/08/19 02:58:00;;;;;;;6.10;3.87;;;22.30;99.90;;;;;;5032273;28;20213;-71
2023/08/19 03:00:26;;;;;;;4.40;3.70;;;22.30;99.90;;;;;;5013093;28;20580;-70
2023/08/19 03:02:52;;;;;;;4.00;3.60;;;22.40;99.90;;;;;;5013247;28;20814;-71
2023/08/19 03:05:18;;;;;;;5.57;3.90;;;22.40;99.90;;;;;;5012700;28;20414;-71
2023/08/19 03:07:43;;;;;;;4.60;4.20;;;22.40;99.90;;;;;;5012914;28;20167;-70
2023/08/19 03:10:09;;;;;;;3.57;3.23;;;22.50;99.90;;;;;;5027891;28;20176;-71
2023/08/19 03:12:35;;;;;;;4.77;3.53;;;22.30;99.90;;;;;;5032346;28;20693;-71
2023/08/19 03:15:00;;;;;;;4.60;4.20;;;22.30;99.90;;;;;;5027836;28;20184;-72
2023/08/19 03:17:26;;;;;;;4.00;3.60;;;22.40;99.90;;;;;;5012963;28;20682;-71
2023/08/19 03:19:52;;;;;;;4.10;3.70;;;22.40;99.90;;;;;;5027716;28;20174;-71
2023/08/19 03:22:17;;;;;;;6.93;3.70;;;22.30;99.90;;;;;;5032671;28;20172;-71
2023/08/19 03:24:43;;;;;;;4.50;3.73;;;22.30;99.90;;;;;;5032409;28;20195;-71
2023/08/19 03:27:09;;;;;;;4.27;3.87;;;22.20;99.90;;;;;;5036452;28;20634;-71
2023/08/19 03:29:35;;;;;;;5.50;3.77;;;22.20;99.90;;;;;;5023328;28;20407;-71
2023/08/19 03:32:00;;;;;;;3.90;3.33;;;22.20;99.90;;;;;;5017083;28;20222;-71
2023/08/19 03:34:26;;;;;;;5.10;3.50;;;22.20;99.90;;;;;;5015918;28;20184;-70
2023/08/19 03:36:51;;;;;;;4.73;4.23;;;22.20;99.90;;;;;;5016508;28;20623;-72
2023/08/19 03:39:17;;;;;;;4.33;4.03;;;22.10;99.90;;;;;;5027250;28;20184;-71
2023/08/19 03:41:42;;;;;;;4.80;4.30;;;22.20;99.90;;;;;;5036201;28;20176;-70
2023/08/19 03:44:08;;;;;;;4.37;3.97;;;22.20;99.90;;;;;;5035999;28;20274;-71
2023/08/19 03:46:33;;;;;;;5.50;4.10;;;22.20;99.90;;;;;;5018616;28;20187;-72
2023/08/19 03:48:59;;;;;;;4.83;4.00;;;22.20;99.90;;;;;;5024144;28;20206;-71
2023/08/19 03:51:26;;;;;;;4.87;4.37;;;22.10;99.90;;;;;;5036070;28;20178;-71
2023/08/19 03:53:51;;;;;;;3.57;3.27;;;22.10;99.90;;;;;;5035741;28;20565;-71
2023/08/19 03:56:17;;;;;;;5.23;4.27;;;22.10;99.90;;;;;;5035959;28;20406;-71
2023/08/19 03:58:45;;;;;;;5.43;4.27;;;22.20;99.90;;;;;;5030009;28;20195;-70
2023/08/19 04:01:10;;;;;;;4.67;3.70;;;22.20;99.90;;;;;;5016052;28;20251;-70
2023/08/19 04:03:36;;;;;;;5.07;4.00;;;22.10;99.90;;;;;;5015482;28;20949;-69
2023/08/19 04:06:01;;;;;;;4.30;3.90;;;22.00;99.90;;;;;;5015858;28;20647;-70
2023/08/19 04:08:27;;;;;;;6.10;3.60;;;22.00;99.90;;;;;;5019294;28;20217;-71
2023/08/19 04:10:52;;;;;;;4.43;4.03;;;22.00;99.90;;;;;;5035804;28;20175;-71
2023/08/19 04:13:18;;;;;;;4.50;4.10;;;22.00;99.90;;;;;;5036163;28;20194;-71
2023/08/19 04:15:44;;;;;;;4.20;3.80;;;22.00;99.90;;;;;;5024956;28;20632;-71
2023/08/19 04:18:10;;;;;;;5.10;4.47;;;22.00;99.90;;;;;;5016408;28;20184;-71
2023/08/19 04:20:39;;;;;;;4.13;3.70;;;21.90;99.90;;;;;;5035296;28;20623;-70
2023/08/19 04:23:05;;;;;;;6.20;4.43;;;21.90;99.90;;;;;;5035496;28;20468;-70
2023/08/19 04:25:31;;;;;;;4.20;3.80;;;21.90;99.90;;;;;;5035750;28;20421;-70
2023/08/19 04:27:57;;;;;;;4.47;4.07;;;21.90;99.90;;;;;;5035398;28;20493;-71
2023/08/19 04:30:23;;;;;;;7.73;4.50;;;21.80;99.90;;;;;;5016349;28;20415;-72
2023/08/19 04:32:50;;;;;;;4.37;3.90;;;21.80;99.90;;;;;;5018249;28;20168;-70
2023/08/19 04:35:15;;;;;;;5.80;4.20;;;21.80;99.90;;;;;;5034948;28;20487;-70
2023/08/19 04:37:41;;;;;;;4.40;4.00;;;21.70;99.90;;;;;;5034577;28;21011;-71
2023/08/19 04:40:09;;;;;;;5.40;3.83;;;21.70;99.90;;;;;;5018696;28;20168;-72
2023/08/19 04:42:38;;;;;;;5.03;3.77;;;21.70;99.90;;;;;;5015242;28;20172;-70
2023/08/19 04:45:07;;;;;;;4.67;3.53;;;21.50;99.90;;;;;;5015473;28;20422;-70
2023/08/19 04:47:33;;;;;;;4.73;4.10;;;21.40;99.90;;;;;;5015798;28;20411;-71
2023/08/19 04:49:59;;;;;;;5.70;4.03;;;21.50;99.90;;;;;;5029764;28;20406;-71
2023/08/19 04:52:26;;;;;;;5.90;5.20;;;21.60;99.90;;;;;;5035004;28;20832;-71
2023/08/19 04:54:51;;;;;;;5.33;4.27;;;21.60;99.90;;;;;;5034892;28;20187;-71
2023/08/19 04:57:17;;;;;;;4.57;4.17;;;21.60;99.90;;;;;;5035236;28;20428;-71
2023/08/19 04:59:42;;;;;;;4.20;3.57;;;21.60;99.90;;;;;;5021876;28;20168;-71
2023/08/19 05:02:08;;;;;;;5.60;4.10;;;21.70;99.90;;;;;;5014937;28;20584;-72
2023/08/19 05:04:33;;;;;;;4.90;4.00;;;21.80;99.90;;;;;;5014248;28;20663;-70
2023/08/19 05:06:59;;;;;;;6.47;4.47;;;21.80;99.90;;;;;;5015084;28;20251;-71
2023/08/19 05:09:24;;;;;;;3.90;3.60;;;21.80;99.90;;;;;;5025247;28;20207;-71
2023/08/19 05:11:50;;;;;;;6.77;3.57;;;21.90;99.90;;;;;;5034979;28;20168;-71
2023/08/19 05:14:16;;;;;;;4.03;3.23;;;21.90;99.90;;;;;;5034268;28;20195;-71
2023/08/19 05:16:41;;;;;;;5.57;4.20;;;22.10;99.90;;;;;;5015762;28;20179;-71
2023/08/19 05:19:18;;;;;;;7.00;5.13;;;22.00;99.90;;;;;;5019967;28;20206;-71
2023/08/19 05:21:44;;;;;;;4.40;3.37;;;22.10;99.90;;;;;;4995039;28;20620;-72
2023/08/19 05:24:11;;;;;;;4.60;4.20;;;22.10;99.90;;;;;;4994972;28;20874;-71
2023/08/19 05:26:41;;;;;;;4.17;3.53;;;22.20;99.90;;;;;;4994786;28;20408;-71
2023/08/19 05:29:07;;;;;;;4.70;4.03;;;22.20;99.90;;;;;;5010365;28;20417;-70
2023/08/19 05:31:33;;;;;;;4.87;3.93;;;22.30;99.90;;;;;;5034817;28;20402;-70
2023/08/19 05:33:59;;;;;;;5.27;3.87;;;22.40;99.90;;;;;;5033680;28;20337;-71
2023/08/19 05:36:24;;;;;;;4.70;4.07;;;22.40;99.90;;;;;;5033847;28;20170;-70
2023/08/19 05:38:50;;;;;;;4.43;4.00;;;22.30;99.90;;;;;;5028400;28;20271;-70
2023/08/19 05:41:16;;;;;;;6.93;4.60;;;22.30;99.90;;;;;;5014124;28;20167;-73
2023/08/19 05:43:41;;;;;;;4.70;3.80;;;22.30;99.90;;;;;;5014351;28;20219;-70
2023/08/19 05:46:07;;;;;;;4.33;3.93;;;22.40;99.90;;;;;;5013969;28;20176;-71
2023/08/19 05:48:33;;;;;;;5.10;4.13;;;22.50;99.90;;;;;;5015557;28;20183;-72
2023/08/19 05:51:00;;;;;;;5.67;4.73;;;22.60;99.90;;;;;;5033349;28;20191;-70
2023/08/19 05:53:26;;;;;;;5.17;4.30;;;22.80;99.90;;;;;;5033443;28;20433;-71
2023/08/19 05:55:51;;;;;;;4.23;3.83;;;22.90;99.90;;;;;;5034013;28;20912;-71
2023/08/19 05:58:17;;;;;;;7.87;4.40;;;22.90;99.90;;;;;;5032939;28;20226;-70
2023/08/19 06:00:43;;;;;;;6.00;4.40;;;23.10;99.90;;;;;;5013490;28;20188;-71
2023/08/19 06:03:09;;;;;;;4.67;3.77;;;23.20;99.90;;;;;;5013916;28;20579;-70
2023/08/19 06:05:37;;;;;;;7.23;4.30;;;23.30;99.90;;;;;;5013044;28;20191;-71
2023/08/19 06:08:04;;;;;;;6.27;5.30;;;23.40;99.90;;;;;;5013391;28;20176;-71
2023/08/19 06:10:30;;;;;;;6.40;4.47;;;23.40;99.90;;;;;;5031889;28;20405;-70
2023/08/19 06:12:56;;;;;;;4.50;3.70;;;23.50;99.90;;;;;;5033180;28;20426;-72
2023/08/19 06:15:21;;;;;;;6.30;4.50;;;23.60;99.90;;;;;;5025791;28;20505;-72
2023/08/19 06:17:47;;;;;;;5.33;3.90;;;23.70;99.90;;;;;;5013970;28;20430;-71
2023/08/19 06:20:13;;;;;;;4.80;4.30;;;23.70;99.90;;;;;;5028839;28;20178;-70
2023/08/19 06:22:38;;;;;;;4.53;3.20;;;23.70;99.90;;;;;;5033175;28;20160;-70
2023/08/19 06:25:04;;;;;;;4.00;3.53;;;23.90;99.90;;;;;;5033272;28;20191;-71
2023/08/19 06:27:30;;;;;;;4.77;4.30;;;24.00;99.90;;;;;;5033723;28;20630;-72
2023/08/19 06:29:56;;;;;;;6.00;4.43;;;24.10;99.90;;;;;;5019615;28;20417;-72
2023/08/19 06:32:22;;;;;;;4.10;3.47;;;24.30;99.90;;;;;;5026394;28;20182;-71
2023/08/19 06:34:48;;;;;;;6.00;4.83;;;24.40;99.90;;;;;;5032768;28;20273;-70
2023/08/19 06:37:22;;;;;;;7.70;4.03;;;24.50;99.90;;;;;;5032968;28;20442;-72
2023/08/19 06:39:49;;;;;;;5.40;3.93;;;24.60;99.90;;;;;;5020582;28;20535;-71
2023/08/19 06:42:16;;;;;;;5.73;4.07;;;24.80;99.90;;;;;;5013074;28;20453;-71
2023/08/19 06:44:43;;;;;;;6.23;4.70;;;24.90;99.90;;;;;;5012944;28;20960;-70
2023/08/19 06:47:10;;;;;;;4.23;3.77;;;25.10;99.90;;;;;;5013203;28;20411;-71
2023/08/19 06:49:36;;;;;;;3.90;3.53;;;25.20;99.90;;;;;;5023308;28;20501;-71
2023/08/19 06:52:02;;;;;;;3.73;3.40;;;25.40;99.90;;;;;;5021570;28;20415;-71
2023/08/19 06:54:28;;;;;;;11.30;3.87;;;25.50;99.90;;;;;;5012989;28;20433;-70
2023/08/19 06:57:09;;;;;;;5.90;4.30;;;25.60;99.90;;;;;;5013259;28;20435;-71
2023/08/19 06:59:38;;;;;;;4.43;4.00;;;25.70;99.90;;;;;;5022774;28;20445;-72
2023/08/19 07:02:05;;;;;;;5.20;3.60;;;25.80;99.90;;;;;;5032552;28;20458;-70
2023/08/19 07:04:31;;;;;;;4.93;3.57;;;26.00;99.90;;;;;;5032054;28;20422;-70
2023/08/19 07:06:59;;;;;;;5.07;3.77;;;26.10;99.90;;;;;;5032650;28;20410;-70
2023/08/19 07:09:25;;;;;;;4.60;4.07;;;26.20;99.90;;;;;;5023941;28;20444;-71
2023/08/19 07:11:53;;;;;;;8.77;6.90;;;26.30;99.90;;;;;;5012564;28;20410;-70
2023/08/19 07:14:19;;;;;;;7.70;6.80;;;26.50;99.90;;;;;;5012509;28;20215;-71
2023/08/19 07:16:47;;;;;;;5.10;4.37;;;26.60;99.90;;;;;;5013243;28;20438;-71
2023/08/19 07:19:16;;;;;;;7.83;5.33;;;26.70;99.90;;;;;;5018883;28;20449;-73
2023/08/19 07:21:44;;;;;;;8.80;7.07;;;26.80;99.90;;;;;;5032252;28;20520;-71
2023/08/19 07:24:11;;;;;;;10.40;6.07;;;26.80;99.90;;;;;;5032078;28;20814;-71
2023/08/19 07:26:37;;;;;;;9.30;5.77;;;26.40;99.90;;;;;;5029047;28;20418;-71
2023/08/19 07:29:03;;;;;;;6.03;5.43;;;26.20;99.90;;;;;;5025647;28;20425;-72
2023/08/19 07:31:28;;;;;;;8.53;6.87;;;26.30;99.90;;;;;;5012483;28;20893;-73
2023/08/19 07:33:55;;;;;;;7.30;4.60;;;26.60;99.90;;;;;;5012124;28;20194;-72
2023/08/19 07:36:22;;;;;;;5.37;4.87;;;26.70;99.90;;;;;;5012122;28;20257;-70
2023/08/19 07:38:47;;;;;;;6.57;4.73;;;26.50;99.90;;;;;;5014051;28;20438;-70
2023/08/19 07:41:14;;;;;;;7.03;4.77;;;26.50;99.90;;;;;;5032194;28;20407;-72
2023/08/19 07:43:39;;;;;;;7.07;4.83;;;26.50;99.90;;;;;;5032291;28;20321;-71
2023/08/19 07:46:05;;;;;;;8.07;5.67;;;26.90;99.90;;;;;;5020909;28;20455;-71
2023/08/19 07:48:31;;;;;;;7.50;4.87;;;27.00;99.90;;;;;;5013203;28;20178;-71
2023/08/19 07:50:57;;;;;;;6.90;5.13;;;27.30;99.90;;;;;;5034723;28;20600;-70
2023/08/19 07:53:23;;;;;;;6.63;4.33;;;27.60;99.90;;;;;;5030963;28;20422;-71
2023/08/19 07:55:49;;;;;;;8.67;4.70;;;27.80;99.90;;;;;;5032339;28;20459;-72
2023/08/19 07:58:14;;;;;;;9.20;5.23;;;28.10;99.90;;;;;;5030757;28;20192;-71
2023/08/19 08:00:40;;;;;;;7.53;4.67;;;28.20;99.90;;;;;;5013787;28;20186;-71
2023/08/19 08:03:06;;;;;;;7.13;4.90;;;28.40;99.90;;;;;;5012161;28;20203;-70
2023/08/19 08:05:32;;;;;;;9.87;4.90;;;28.40;99.90;;;;;;5011696;28;20659;-70
2023/08/19 08:07:58;;;;;;;9.27;4.93;;;28.60;99.90;;;;;;5012251;28;20939;-71
2023/08/19 08:10:24;;;;;;;9.77;5.03;;;28.30;99.90;;;;;;5028259;28;20414;-71
2023/08/19 08:12:49;;;;;;;8.43;5.00;;;28.60;99.90;;;;;;5035229;28;20408;-71
2023/08/19 08:15:15;;;;;;;6.97;4.40;;;28.40;99.90;;;;;;5029346;28;20198;-71
2023/08/19 08:17:41;;;;;;;10.10;4.80;;;28.30;99.90;;;;;;5015230;28;20188;-69
2023/08/19 08:20:07;;;;;;;7.67;4.50;;;28.60;99.90;;;;;;5028674;28;20172;-71
2023/08/19 08:22:33;;;;;;;7.70;4.43;;;28.80;99.90;;;;;;5035781;28;20180;-71
2023/08/19 08:24:59;;;;;;;8.07;4.33;;;29.10;99.90;;;;;;5050621;22;20489;-70
2023/08/19 08:27:25;;;;;;;5.30;4.03;;;29.00;99.60;;;;;;5035940;28;20800;-70
2023/08/19 08:29:50;;;;;;;5.23;3.40;;;29.00;99.00;;;;;;5035342;28;20160;-70
2023/08/19 08:32:16;;;;;;;5.63;4.33;;;29.00;97.60;;;;;;5035614;28;20195;-70
2023/08/19 08:34:42;;;;;;;8.30;4.40;;;29.20;97.90;;;;;;5034874;28;20191;-70
2023/08/19 08:37:08;;;;;;;12.67;4.60;;;29.60;97.80;;;;;;5035605;28;20421;-70
2023/08/19 08:39:33;;;;;;;5.43;3.73;;;29.70;96.80;;;;;;5035088;28;20210;-71
2023/08/19 08:41:59;;;;;;;4.13;3.70;;;29.70;97.40;;;;;;5035194;28;20175;-71
2023/08/19 08:44:26;;;;;;;5.60;4.23;;;29.90;97.50;;;;;;5035340;28;20684;-70
2023/08/19 08:46:53;;;;;;;5.87;3.87;;;29.90;97.80;;;;;;5034808;28;20425;-71
2023/08/19 08:49:19;;;;;;;8.10;4.03;;;29.90;97.10;;;;;;5033354;28;20496;-71
2023/08/19 08:51:45;;;;;;;7.10;4.40;;;30.00;97.20;;;;;;5034669;28;20454;-70
2023/08/19 08:54:10;;;;;;;5.53;3.93;;;29.90;95.70;;;;;;5035051;28;20191;-71
2023/08/19 08:56:36;;;;;;;7.23;4.10;;;30.00;96.90;;;;;;5034937;28;20590;-71
2023/08/19 08:59:02;;;;;;;8.07;4.40;;;30.10;95.90;;;;;;5034769;28;20206;-71
2023/08/19 09:01:29;;;;;;;6.40;4.60;;;30.20;96.20;;;;;;5035130;28;20548;-71
2023/08/19 09:04:00;;;;;;;7.27;3.90;;;30.20;96.50;;;;;;5034957;28;20437;-71
2023/08/19 09:06:26;;;;;;;7.40;4.27;;;30.10;95.90;;;;;;5034352;28;20405;-71
2023/08/19 09:09:03;;;;;;;9.30;3.57;;;30.00;95.10;;;;;;5034575;28;20492;-71
2023/08/19 09:11:33;;;;;;;8.20;4.43;;;30.10;94.70;;;;;;5034872;28;20175;-71
2023/08/19 09:14:24;;;;;;;6.37;3.73;;;30.30;94.30;;;;;;5034593;28;20442;-71
2023/08/19 09:16:50;;;;;;;6.73;4.13;;;30.40;94.50;;;;;;5028871;28;20438;-71
2023/08/19 09:19:15;;;;;;;4.23;3.83;;;30.50;94.90;;;;;;5034104;28;20495;-71
2023/08/19 09:21:41;;;;;;;8.07;4.20;;;30.70;94.80;;;;;;5034042;28;20616;-70
2023/08/19 09:24:07;;;;;;;5.93;3.97;;;31.00;94.90;;;;;;5034173;28;20211;-71
2023/08/19 09:26:35;;;;;;;6.03;4.37;;;31.10;93.60;;;;;;5034398;28;20505;-71
2023/08/19 09:29:01;;;;;;;8.90;4.17;;;31.30;94.10;;;;;;5033046;28;20669;-71
2023/08/19 09:31:26;;;;;;;8.77;4.00;;;31.30;92.50;;;;;;5034192;28;20414;-71
2023/08/19 09:33:52;;;;;;;5.23;3.70;;;31.30;92.40;;;;;;5033756;28;20205;-72
2023/08/19 09:36:23;;;;;;;7.20;4.03;;;31.30;92.50;;;;;;5033650;28;20176;-71
2023/08/19 09:38:53;;;;;;;5.27;4.03;;;31.30;92.80;;;;;;5033350;28;20453;-70
2023/08/19 09:41:19;;;;;;;6.70;4.40;;;31.50;92.60;;;;;;5034026;28;20402;-71
2023/08/19 09:43:47;;;;;;;6.33;3.80;;;31.60;91.40;;;;;;5035174;28;20429;-71
2023/08/19 09:46:14;;;;;;;9.93;4.57;;;31.60;92.60;;;;;;5033359;28;20190;-71
2023/08/19 09:48:40;;;;;;;5.30;3.80;;;31.70;93.20;;;;;;5034290;28;20422;-71
2023/08/19 09:51:08;;;;;;;7.37;3.20;;;31.90;93.20;;;;;;5033344;28;20909;-71
2023/08/19 09:53:37;;;;;;;8.03;4.27;;;32.00;92.20;;;;;;5034019;28;20549;-71
2023/08/19 09:56:02;;;;;;;5.63;3.57;;;32.00;92.40;;;;;;5033736;28;20923;-71
2023/08/19 09:58:28;;;;;;;5.90;3.83;;;32.10;91.50;;;;;;5033673;28;20446;-70
2023/08/19 10:00:54;;;;;;;5.47;3.63;;;32.10;90.70;;;;;;5033726;28;20174;-71
2023/08/19 10:03:20;;;;;;;7.27;4.30;;;32.20;90.90;;;;;;5033846;28;20227;-71
2023/08/19 10:05:52;;;;;;;7.63;4.07;;;32.20;90.40;;;;;;5033236;28;20572;-70
2023/08/19 10:08:23;;;;;;;4.80;3.80;;;32.40;91.30;;;;;;5033424;28;20858;-71
2023/08/19 10:10:48;;;;;;;7.50;4.10;;;32.40;92.30;;;;;;5033929;28;20406;-71
2023/08/19 10:13:15;;;;;;;7.53;4.20;;;32.50;91.60;;;;;;5033845;28;20787;-71
2023/08/19 10:15:43;;;;;;;5.80;3.67;;;32.70;91.10;;;;;;5033275;28;20215;-70
2023/08/19 10:18:17;;;;;;;7.20;3.70;;;32.50;91.10;;;;;;5033552;28;20468;-72
2023/08/19 10:20:47;;;;;;;6.33;3.90;;;32.50;90.30;;;;;;5032776;28;20548;-71
2023/08/19 10:23:15;;;;;;;4.87;3.60;;;32.60;89.50;;;;;;5033437;28;20475;-72
2023/08/19 10:25:42;;;;;;;4.90;3.43;;;32.70;89.80;;;;;;5033604;28;20398;-72
2023/08/19 10:28:11;;;;;;;4.10;3.70;;;32.60;85.70;;;;;;5033384;28;20410;-71
2023/08/19 10:30:37;;;;;;;8.97;3.47;;;32.90;85.40;;;;;;5032962;28;20406;-72
2023/08/19 10:33:32;;;;;;;6.97;4.03;;;33.10;87.30;;;;;;5033028;28;20491;-72
2023/08/19 10:36:03;;;;;;;7.80;4.33;;;33.10;88.60;;;;;;5033000;28;20168;-72
2023/08/19 10:39:03;;;;;;;8.87;5.20;;;33.10;91.50;;;;;;5033076;28;20454;-72
2023/08/19 10:41:33;;;;;;;5.53;3.70;;;33.50;86.70;;;;;;5025858;28;20771;-72
2023/08/19 10:44:11;;;;;;;6.93;3.93;;;33.60;86.80;;;;;;5032959;28;20445;-72
2023/08/19 10:46:42;;;;;;;7.80;4.30;;;33.80;86.00;;;;;;5032342;28;20815;-72
2023/08/19 10:49:33;;;;;;;6.33;4.27;;;33.80;88.40;;;;;;5033117;28;20829;-72
2023/08/19 10:52:06;;;;;;;7.50;3.70;;;33.90;84.70;;;;;;5032743;28;20463;-71
2023/08/19 10:54:41;;;;;;;4.60;3.60;;;34.00;84.60;;;;;;5032717;28;21035;-72
2023/08/19 10:57:08;;;;;;;5.90;4.03;;;34.30;84.50;;;;;;5032763;28;20412;-72
2023/08/19 10:59:34;;;;;;;8.87;4.17;;;34.80;80.40;;;;;;5032909;28;20460;-72
2023/08/19 11:02:00;;;;;;;6.60;4.07;;;35.60;79.20;;;;;;5032691;28;20405;-72
2023/08/19 11:04:26;;;;;;;5.90;4.17;;;36.30;79.50;;;;;;5032905;28;20962;-72
2023/08/19 11:06:53;;;;;;;7.13;3.90;;;37.80;72.10;;;;;;5032167;28;20482;-72
2023/08/19 11:09:19;;;;;;;7.87;3.40;;;38.90;70.50;;;;;;5032892;28;20548;-72
2023/08/19 11:11:44;;;;;;;5.07;4.27;;;39.30;64.80;;;;;;5032583;28;20418;-72
2023/08/19 11:14:21;;;;;;;5.10;3.60;;;39.00;64.20;;;;;;5032675;28;20473;-72
2023/08/19 11:16:51;;;;;;;4.23;3.63;;;39.70;61.60;;;;;;5032101;28;20167;-72
2023/08/19 11:19:18;;;;;;;7.03;3.60;;;38.90;62.20;;;;;;5032765;28;20453;-72
2023/08/19 11:21:44;;;;;;;6.57;3.60;;;40.20;58.50;;;;;;5032026;28;20526;-72
2023/08/19 11:24:12;;;;;;;7.33;3.27;;;40.20;58.80;;;;;;5032606;28;20449;-73
2023/08/19 11:26:47;;;;;;;4.70;3.20;;;41.60;57.20;;;;;;5032178;28;20410;-73
2023/08/19 11:29:13;;;;;;;5.40;3.90;;;41.40;54.70;;;;;;5033097;28;20396;-72
2023/08/19 11:31:40;;;;;;;8.93;4.17;;;41.10;54.30;;;;;;5032363;28;20405;-72
2023/08/19 11:34:13;;;;;;;6.30;3.93;;;40.20;55.80;;;;;;5032613;28;20665;-71
2023/08/19 11:36:40;;;;;;;5.77;4.23;;;41.40;54.30;;;;;;5031562;28;20500;-72
2023/08/19 11:39:06;;;;;;;7.27;4.33;;;43.10;52.20;;;;;;5032308;28;20449;-72
2023/08/19 11:41:33;;;;;;;7.27;3.90;;;42.50;50.60;;;;;;5032479;28;20766;-73
2023/08/19 11:44:01;;;;;;;4.10;3.37;;;42.80;49.60;;;;;;5032267;28;20421;-71
2023/08/19 11:46:30;;;;;;;8.57;3.80;;;42.90;48.50;;;;;;5033783;28;20452;-72
2023/08/19 11:48:57;;;;;;;6.93;3.20;;;42.20;48.50;;;;;;5036340;28;20408;-72
2023/08/19 11:51:27;;;;;;;6.37;3.53;;;43.00;47.70;;;;;;5036488;28;20426;-72
2023/08/19 11:53:54;;;;;;;4.93;3.13;;;44.30;45.20;;;;;;5036407;28;20198;-72
2023/08/19 11:56:20;;;;;;;7.70;3.10;;;45.00;43.10;;;;;;5036123;28;20179;-72
2023/08/19 11:58:51;;;;;;;4.03;2.77;;;45.90;41.60;;;;;;5036244;28;20249;-72
2023/08/19 12:01:18;;;;;;;3.77;3.37;;;42.60;44.30;;;;;;5036394;28;20163;-73
2023/08/19 12:03:48;;;;;;;4.93;3.07;;;42.80;45.00;;;;;;5036032;28;20252;-73
2023/08/19 12:06:14;;;;;;;3.77;2.97;;;44.00;45.30;;;;;;5035808;28;20216;-74
2023/08/19 12:08:42;;;;;;;5.28;3.38;;;44.30;43.40;;;;;;5036367;28;20206;-73
2023/08/19 12:11:08;;;;;;;4.60;3.70;;;44.70;41.90;;;;;;5035969;28;20175;-71
2023/08/19 12:13:34;;;;;;;4.70;3.60;;;45.50;40.60;;;;;;5036001;28;20197;-73
2023/08/19 12:16:00;;;;;;;7.13;3.33;;;43.70;42.20;;;;;;5035742;28;20174;-73
2023/08/19 12:18:25;;;;;;;3.42;3.13;;;42.50;46.40;;;;;;5035791;28;20285;-72
2023/08/19 12:20:52;;;;;;;6.28;3.70;;;44.00;42.60;;;;;;5035440;28;20536;-72
2023/08/19 12:23:18;;;;;;;5.50;4.10;;;43.50;41.70;;;;;;5035483;28;20191;-71
2023/08/19 12:25:54;;;;;;;7.67;4.40;;;42.60;43.10;;;;;;5035839;28;20649;-72
2023/08/19 12:28:20;;;;;;;5.20;3.60;;;42.80;42.70;;;;;;5036221;28;20177;-71
2023/08/19 12:30:46;;;;;;;4.30;3.57;;;42.60;42.80;;;;;;5035214;28;20245;-71
2023/08/19 12:33:13;;;;;;;5.20;2.90;;;42.60;43.50;;;;;;5034189;28;20519;-71
2023/08/19 12:35:39;;;;;;;3.97;3.58;;;43.60;41.90;;;;;;5035291;28;20217;-72
2023/08/19 12:38:05;;;;;;;5.40;3.80;;;44.30;40.70;;;;;;5035642;28;20194;-72
2023/08/19 12:40:31;;;;;;;4.90;3.47;;;44.40;39.80;;;;;;5035471;28;20163;-72
2023/08/19 12:42:57;;;;;;;6.25;3.47;;;44.40;39.50;;;;;;5035303;28;20258;-72
2023/08/19 12:45:22;;;;;;;5.63;3.30;;;44.50;39.50;;;;;;5035189;28;20250;-72